Terminal Aerodrome Forecast
Issued by NWS North Platte, NE

Home | Current Version | Previous Version | Graphics & Text | Print | Product List | Glossary On
Versions: 1 2 3 4 5 6 7 8 9 10 11 12 13 14 15 16 17
000
FTUS43 KLBF 272300
TAFVTN
TAF
KVTN 272322Z 2800/2824 27007KT P6SM SCT250
     FM281500 VRB06KT P6SM BKN120
     FM281900 07006KT P6SM BKN050
     FM282300 08008KT P6SM BKN020=

USA.gov is the U.S. government's official web portal to all federal, state and local government web resources and services.